createdAt,value
2022-08-23T00:02:23.532Z,16.15
2022-08-23T00:05:08.916Z,16.14
2022-08-23T00:07:44.301Z,16.09
2022-08-23T00:10:16.712Z,16.06
2022-08-23T00:12:47.459Z,16.03
2022-08-23T00:15:18.561Z,16.10
2022-08-23T00:17:47.886Z,16.13
2022-08-23T00:20:20.455Z,16.12
2022-08-23T00:22:49.801Z,16.12
2022-08-23T00:25:20.663Z,16.10
2022-08-23T00:27:51.296Z,16.05
2022-08-23T00:30:20.603Z,15.97
2022-08-23T00:32:49.914Z,15.93
2022-08-23T00:35:26.267Z,15.95
2022-08-23T00:38:32.072Z,15.97
2022-08-23T00:40:49.046Z,15.91
2022-08-23T00:43:44.052Z,15.86
2022-08-23T00:46:54.558Z,15.84
2022-08-23T00:49:24.253Z,15.85
2022-08-23T00:52:00.265Z,15.90
2022-08-23T00:54:32.366Z,15.91
2022-08-23T00:57:05.981Z,15.94
2022-08-23T00:59:35.832Z,15.95
2022-08-23T01:02:05.883Z,15.85
2022-08-23T01:04:39.721Z,15.77
2022-08-23T01:07:14.637Z,15.69
2022-08-23T01:09:45.048Z,15.65
2022-08-23T01:12:32.698Z,15.61
2022-08-23T01:15:18.011Z,15.64
2022-08-23T01:17:53.713Z,15.61
2022-08-23T01:20:26.915Z,15.57
2022-08-23T01:23:28.676Z,15.47
2022-08-23T01:25:58.529Z,15.45
2022-08-23T01:28:28.086Z,15.41
2022-08-23T01:30:57.369Z,15.43
2022-08-23T01:33:26.606Z,15.43
2022-08-23T01:35:58.886Z,15.45
2022-08-23T01:38:30.366Z,15.39
2022-08-23T01:41:02.205Z,15.42
2022-08-23T01:43:31.640Z,15.47
2022-08-23T01:46:00.920Z,15.44
2022-08-23T01:48:30.163Z,15.47
2022-08-23T01:50:59.384Z,15.50
2022-08-23T01:53:28.773Z,15.49
2022-08-23T01:55:58.479Z,15.51
2022-08-23T01:58:28.279Z,15.50
2022-08-23T02:00:57.667Z,15.47
2022-08-23T02:03:26.951Z,15.43
2022-08-23T02:05:56.213Z,15.40
2022-08-23T02:08:38.049Z,15.39
2022-08-23T02:11:15.267Z,15.34
2022-08-23T02:13:45.638Z,15.27
2022-08-23T02:16:15.507Z,15.23
2022-08-23T02:18:48.002Z,15.16
2022-08-23T02:21:17.703Z,15.13
2022-08-23T02:23:47.065Z,15.05
2022-08-23T02:26:19.343Z,14.98
2022-08-23T02:28:48.688Z,15.00
2022-08-23T02:31:18.291Z,15.02
2022-08-23T02:36:32.582Z,15.02
2022-08-23T02:39:02.263Z,15.06
2022-08-23T02:41:33.839Z,15.11
2022-08-23T02:44:03.356Z,15.14
2022-08-23T02:46:32.760Z,15.17
2022-08-23T02:49:02.086Z,15.14
2022-08-23T02:51:31.404Z,15.06
2022-08-23T02:54:01.539Z,15.03
2022-08-23T02:56:30.930Z,15.03
2022-08-23T02:59:00.361Z,15.06
2022-08-23T03:01:32.807Z,15.09
2022-08-23T03:04:06.556Z,15.07
2022-08-23T03:06:36.226Z,15.06
2022-08-23T03:09:07.397Z,15.10
2022-08-23T03:11:37.595Z,15.11
2022-08-23T03:14:07.154Z,15.11
2022-08-23T03:16:36.533Z,15.11
2022-08-23T03:19:06.570Z,15.09
2022-08-23T03:21:36.182Z,15.12
2022-08-23T03:24:10.142Z,15.15
2022-08-23T03:26:39.577Z,15.08
2022-08-23T03:29:09.170Z,15.12
2022-08-23T03:31:39.806Z,15.12
2022-08-23T03:34:09.084Z,15.16
2022-08-23T03:36:38.373Z,15.25
2022-08-23T03:39:08.966Z,15.29
2022-08-23T03:41:41.265Z,15.33
2022-08-23T03:44:11.188Z,15.32
2022-08-23T03:46:40.472Z,15.29
2022-08-23T03:49:09.753Z,15.32
2022-08-23T03:51:38.987Z,15.42
2022-08-23T03:54:08.620Z,15.49
2022-08-23T03:56:40.961Z,15.51
2022-08-23T03:59:12.934Z,15.50
2022-08-23T04:01:42.300Z,15.53
2022-08-23T04:04:11.661Z,15.55
2022-08-23T04:06:41.435Z,15.53
2022-08-23T04:09:10.675Z,15.60
2022-08-23T04:11:40.166Z,15.65
2022-08-23T04:14:09.982Z,15.63
2022-08-23T04:16:40.545Z,15.68
2022-08-23T04:19:13.197Z,15.76
2022-08-23T04:21:46.097Z,15.83
2022-08-23T04:24:15.343Z,15.87
2022-08-23T04:26:45.253Z,15.91
2022-08-23T04:29:33.669Z,15.93
2022-08-23T04:32:07.706Z,15.95
2022-08-23T04:34:40.181Z,15.94
2022-08-23T04:37:09.740Z,15.96
2022-08-23T04:39:53.845Z,15.93
2022-08-23T04:42:23.428Z,15.85
2022-08-23T04:44:53.181Z,15.80
2022-08-23T04:47:22.669Z,15.75
2022-08-23T04:49:51.978Z,15.70
2022-08-23T04:52:21.283Z,15.66
2022-08-23T04:54:50.531Z,15.66
2022-08-23T04:57:19.809Z,15.70
2022-08-23T04:59:49.020Z,15.63
2022-08-23T05:02:18.967Z,15.50
2022-08-23T05:04:48.391Z,15.53
2022-08-23T05:07:18.100Z,15.56
2022-08-23T05:09:47.382Z,15.50
2022-08-23T05:12:16.646Z,15.50
2022-08-23T05:14:47.992Z,15.50
2022-08-23T05:17:17.495Z,15.45
2022-08-23T05:19:46.996Z,15.41
2022-08-23T05:22:16.735Z,15.34
2022-08-23T05:24:45.994Z,15.33
2022-08-23T05:27:15.302Z,15.34
2022-08-23T05:29:44.609Z,15.31
2022-08-23T05:32:14.070Z,15.31
2022-08-23T05:34:43.298Z,15.28
2022-08-23T05:37:12.726Z,15.23
2022-08-23T05:39:42.123Z,15.22
2022-08-23T05:42:13.410Z,15.28
2022-08-23T05:44:43.344Z,15.33
2022-08-23T05:47:15.716Z,15.31
2022-08-23T05:49:45.235Z,15.28
2022-08-23T05:52:16.190Z,15.24
2022-08-23T05:54:45.528Z,15.20
2022-08-23T05:57:14.757Z,15.16
2022-08-23T05:59:44.235Z,15.14
2022-08-23T06:02:13.509Z,15.11
2022-08-23T06:04:42.770Z,15.10
2022-08-23T06:07:12.516Z,15.16
2022-08-23T06:09:41.768Z,15.16
2022-08-23T06:12:11.190Z,15.19
2022-08-23T06:14:40.916Z,15.22
2022-08-23T06:17:10.701Z,15.15
2022-08-23T06:19:40.073Z,15.12
2022-08-23T06:22:09.564Z,15.18
2022-08-23T06:24:38.939Z,15.19
2022-08-23T06:27:08.399Z,15.24
2022-08-23T06:29:38.449Z,15.27
2022-08-23T06:32:08.322Z,15.32
2022-08-23T06:34:40.417Z,15.32
2022-08-23T06:37:17.292Z,15.34
2022-08-23T06:39:46.650Z,15.32
2022-08-23T06:42:38.525Z,15.33
2022-08-23T06:45:08.849Z,15.30
2022-08-23T06:47:38.159Z,15.34
2022-08-23T06:50:07.850Z,15.38
2022-08-23T06:52:38.156Z,15.44
2022-08-23T06:55:13.591Z,15.50
2022-08-23T06:57:43.406Z,15.53
2022-08-23T07:00:13.477Z,15.59
2022-08-23T07:02:42.850Z,15.65
2022-08-23T07:05:18.097Z,15.72
2022-08-23T07:07:47.369Z,15.76
2022-08-23T07:10:17.080Z,15.82
2022-08-23T07:12:46.494Z,15.85
2022-08-23T07:15:16.245Z,15.90
2022-08-23T07:17:45.494Z,16.00
2022-08-23T07:20:14.758Z,16.06
2022-08-23T07:22:44.607Z,16.12
2022-08-23T07:25:14.126Z,16.18
2022-08-23T07:27:45.064Z,16.25
2022-08-23T07:30:15.457Z,16.40
2022-08-23T07:32:44.872Z,16.54
2022-08-23T07:35:14.114Z,16.65
2022-08-23T07:37:43.390Z,16.73
2022-08-23T07:40:20.643Z,16.79
2022-08-23T07:42:51.026Z,16.83
2022-08-23T07:45:23.021Z,16.95
2022-08-23T07:47:54.398Z,17.05
2022-08-23T07:50:23.759Z,17.18
2022-08-23T07:52:53.626Z,17.31
2022-08-23T07:55:22.983Z,17.44
2022-08-23T07:57:52.401Z,17.61
2022-08-23T08:00:21.762Z,17.76
2022-08-23T08:02:51.240Z,17.88
2022-08-23T08:05:21.902Z,18.04
2022-08-23T08:07:51.367Z,18.26
2022-08-23T08:10:21.023Z,18.49
2022-08-23T08:12:50.255Z,18.77
2022-08-23T08:15:20.424Z,18.92
2022-08-23T08:17:50.953Z,19.12
2022-08-23T08:20:21.886Z,19.26
2022-08-23T08:22:58.391Z,19.36
2022-08-23T08:25:28.692Z,19.37
2022-08-23T08:27:58.419Z,19.34
2022-08-23T08:30:27.734Z,19.31
2022-08-23T08:32:57.051Z,19.29
2022-08-23T08:35:26.505Z,19.36
2022-08-23T08:37:56.500Z,19.40
2022-08-23T08:40:34.411Z,19.45
2022-08-23T08:43:16.678Z,19.46
2022-08-23T08:46:01.742Z,19.42
2022-08-23T08:48:33.198Z,19.40
2022-08-23T08:51:07.223Z,19.41
2022-08-23T08:53:44.728Z,19.47
2022-08-23T08:56:32.370Z,19.53
2022-08-23T08:59:06.908Z,19.66
2022-08-23T09:01:38.650Z,19.79
2022-08-23T09:04:09.110Z,19.84
2022-08-23T09:06:53.445Z,20.08
2022-08-23T09:09:53.839Z,20.37
2022-08-23T09:12:31.383Z,20.45
2022-08-23T09:15:26.332Z,20.48
2022-08-23T09:17:58.339Z,20.33
2022-08-23T09:20:33.326Z,20.24
2022-08-23T09:23:36.648Z,20.23
2022-08-23T09:26:14.098Z,20.24
2022-08-23T09:28:43.363Z,20.28
2022-08-23T09:31:12.762Z,20.30
2022-08-23T09:33:46.072Z,20.33
2022-08-23T09:36:20.778Z,20.42
2022-08-23T09:39:01.498Z,20.56
2022-08-23T09:41:39.596Z,20.61
2022-08-23T09:44:16.487Z,20.65
2022-08-23T09:46:46.813Z,20.65
2022-08-23T09:49:29.861Z,20.62
2022-08-23T09:52:02.463Z,20.60
2022-08-23T09:54:35.900Z,20.57
2022-08-23T09:57:09.497Z,20.52
2022-08-23T09:59:51.919Z,20.43
2022-08-23T10:02:24.038Z,20.43
2022-08-23T10:05:19.956Z,20.51
2022-08-23T10:08:02.028Z,20.76
2022-08-23T10:10:35.557Z,20.91
2022-08-23T10:13:05.284Z,21.01
2022-08-23T10:16:05.173Z,21.01
2022-08-23T10:18:46.771Z,20.84
2022-08-23T10:21:47.115Z,20.81
2022-08-23T10:24:43.828Z,20.81
2022-08-23T10:27:46.029Z,20.82
2022-08-23T10:30:18.578Z,20.84
2022-08-23T10:33:18.418Z,20.79
2022-08-23T10:36:10.931Z,20.74
2022-08-23T10:39:03.715Z,20.78
2022-08-23T10:41:56.091Z,20.79
2022-08-23T10:44:35.243Z,20.89
2022-08-23T10:47:42.812Z,21.25
2022-08-23T10:50:19.361Z,21.43
2022-08-23T10:53:08.767Z,21.53
2022-08-23T10:56:03.284Z,21.62
2022-08-23T10:59:00.340Z,21.73
2022-08-23T11:02:03.589Z,21.79
2022-08-23T11:04:51.407Z,21.85
2022-08-23T11:07:28.709Z,21.88
2022-08-23T11:10:16.578Z,21.88
2022-08-23T11:13:08.461Z,21.79
2022-08-23T11:15:57.379Z,21.78
2022-08-23T11:18:33.088Z,21.67
2022-08-23T11:21:22.201Z,21.60
2022-08-23T11:23:54.752Z,21.54
2022-08-23T11:26:31.340Z,21.43
2022-08-23T11:29:10.863Z,21.37
2022-08-23T11:32:01.255Z,21.37
2022-08-23T11:35:05.546Z,21.38
2022-08-23T11:38:04.842Z,21.42
2022-08-23T11:40:59.080Z,21.43
2022-08-23T11:43:32.356Z,21.42
2022-08-23T11:46:19.209Z,21.33
2022-08-23T11:49:12.089Z,21.26
2022-08-23T11:51:47.963Z,21.20
2022-08-23T11:54:30.481Z,21.16
2022-08-23T11:57:05.371Z,21.14
2022-08-23T12:00:04.287Z,21.17
2022-08-23T12:02:38.421Z,21.17
2022-08-23T12:05:32.622Z,21.21
2022-08-23T12:08:05.738Z,21.18
2022-08-23T12:10:44.195Z,21.20
2022-08-23T12:13:22.625Z,21.19
2022-08-23T12:16:17.721Z,21.21
2022-08-23T12:18:49.914Z,21.21
2022-08-23T12:21:30.878Z,21.23
2022-08-23T12:24:03.698Z,21.20
2022-08-23T12:26:37.936Z,21.22
2022-08-23T12:29:56.834Z,21.15
2022-08-23T12:32:36.780Z,21.12
2022-08-23T12:35:24.214Z,21.06
2022-08-23T12:38:06.685Z,21.03
2022-08-23T12:40:44.301Z,21.05
2022-08-23T12:43:22.978Z,21.06
2022-08-23T12:46:01.017Z,21.05
2022-08-23T12:48:35.522Z,21.11
2022-08-23T12:51:10.386Z,21.19
2022-08-23T12:53:45.096Z,21.23
2022-08-23T12:56:20.903Z,21.33
2022-08-23T12:58:54.298Z,21.42
2022-08-23T13:01:35.858Z,21.49
2022-08-23T13:04:13.289Z,21.55
2022-08-23T13:07:09.285Z,21.62
2022-08-23T13:09:42.317Z,21.67
2022-08-23T13:12:16.073Z,21.71
2022-08-23T13:14:47.831Z,21.75
2022-08-23T13:17:23.880Z,21.79
2022-08-23T13:19:55.736Z,21.85
2022-08-23T13:22:28.535Z,21.91
2022-08-23T13:25:28.237Z,21.97
2022-08-23T13:28:00.070Z,21.95
2022-08-23T13:30:39.144Z,21.92
2022-08-23T13:33:11.566Z,21.98
2022-08-23T13:35:43.500Z,21.99
2022-08-23T13:38:20.902Z,22.00
2022-08-23T13:41:03.308Z,21.96
2022-08-23T13:43:40.619Z,21.93
2022-08-23T13:46:15.267Z,21.95
2022-08-23T13:48:59.592Z,21.95
2022-08-23T13:51:38.780Z,21.92
2022-08-23T13:54:12.210Z,21.92
2022-08-23T13:56:54.425Z,21.97
2022-08-23T13:59:39.227Z,22.02
2022-08-23T14:02:14.503Z,22.07
2022-08-23T14:04:44.810Z,22.08
2022-08-23T14:07:15.138Z,22.10
2022-08-23T14:09:44.915Z,22.10
2022-08-23T14:12:21.253Z,22.12
2022-08-23T14:14:51.005Z,22.05
2022-08-23T14:17:21.168Z,22.05
2022-08-23T14:22:40.557Z,22.09
2022-08-23T14:25:11.053Z,22.07
2022-08-23T14:27:42.469Z,22.07
2022-08-23T14:30:14.239Z,22.11
2022-08-23T14:32:43.553Z,22.14
2022-08-23T14:35:12.825Z,22.20
2022-08-23T14:40:31.729Z,22.25
2022-08-23T14:43:01.401Z,22.23
2022-08-23T14:45:30.797Z,22.22
2022-08-23T14:48:00.282Z,22.19
2022-08-23T14:50:29.797Z,22.17
2022-08-23T14:53:01.317Z,22.14
2022-08-23T14:55:33.026Z,22.16
2022-08-23T14:58:04.585Z,22.19
2022-08-23T15:00:35.470Z,22.21
2022-08-23T15:03:10.023Z,22.30
2022-08-23T15:05:40.042Z,22.31
2022-08-23T15:08:09.425Z,22.37
2022-08-23T15:12:58.371Z,22.46
2022-08-23T15:13:35.431Z,22.50
2022-08-23T15:16:11.771Z,22.52
2022-08-23T15:18:41.842Z,22.50
2022-08-23T15:21:11.118Z,22.47
2022-08-23T15:23:40.526Z,22.43
2022-08-23T15:26:09.852Z,22.38
2022-08-23T15:28:39.639Z,22.41
2022-08-23T15:31:11.981Z,22.42
2022-08-23T15:33:41.964Z,22.39
2022-08-23T15:36:11.603Z,22.32
2022-08-23T15:38:41.319Z,22.27
2022-08-23T15:41:10.809Z,22.29
2022-08-23T15:43:40.308Z,22.25
2022-08-23T15:46:12.189Z,22.26
2022-08-23T15:48:51.465Z,22.23
2022-08-23T15:51:20.894Z,22.19
2022-08-23T15:55:15.654Z,22.21
2022-08-23T15:57:48.525Z,22.22
2022-08-23T16:00:20.018Z,22.21
2022-08-23T16:03:19.343Z,22.18
2022-08-23T16:05:41.266Z,22.19
2022-08-23T16:08:11.470Z,22.22
2022-08-23T16:10:40.955Z,22.24
2022-08-23T16:13:10.577Z,22.22
2022-08-23T16:15:41.688Z,22.24
2022-08-23T16:18:11.759Z,22.21
2022-08-23T16:20:41.295Z,22.22
2022-08-23T16:23:11.061Z,22.26
2022-08-23T16:25:40.483Z,22.28
2022-08-23T16:28:09.998Z,22.30
2022-08-23T16:30:39.371Z,22.33
2022-08-23T16:33:08.748Z,22.34
2022-08-23T16:35:38.504Z,22.32
2022-08-23T16:38:07.837Z,22.27
2022-08-23T16:40:37.104Z,22.25
2022-08-23T16:43:06.946Z,22.22
2022-08-23T16:45:36.283Z,22.20
2022-08-23T16:48:05.917Z,22.21
2022-08-23T16:50:37.483Z,22.20
2022-08-23T16:53:07.505Z,22.18
2022-08-23T16:55:37.028Z,22.16
2022-08-23T16:58:07.921Z,22.12
2022-08-23T17:00:39.043Z,22.11
2022-08-23T17:03:08.528Z,22.10
2022-08-23T17:05:39.046Z,22.10
2022-08-23T17:08:08.343Z,22.04
2022-08-23T17:10:37.863Z,21.98
2022-08-23T17:13:07.851Z,21.92
2022-08-23T17:15:39.288Z,21.89
2022-08-23T17:18:09.262Z,21.89
2022-08-23T17:20:40.470Z,21.90
2022-08-23T17:23:11.422Z,21.90
2022-08-23T17:25:42.380Z,21.89
2022-08-23T17:28:11.697Z,21.81
2022-08-23T17:30:40.978Z,21.82
2022-08-23T17:33:10.378Z,21.83
2022-08-23T17:35:40.077Z,21.78
2022-08-23T17:38:10.204Z,21.72
2022-08-23T17:40:42.197Z,21.74
2022-08-23T17:43:12.755Z,21.73
2022-08-23T17:45:46.436Z,21.72
2022-08-23T17:48:16.808Z,21.70
2022-08-23T17:50:46.654Z,21.68
2022-08-23T17:53:19.435Z,21.63
2022-08-23T17:55:49.252Z,21.64
2022-08-23T17:58:19.994Z,21.63
2022-08-23T18:00:49.452Z,21.59
2022-08-23T18:03:19.008Z,21.53
2022-08-23T18:05:48.443Z,21.45
2022-08-23T18:08:18.117Z,21.42
2022-08-23T18:10:47.724Z,21.33
2022-08-23T18:13:17.000Z,21.27
2022-08-23T18:15:46.403Z,21.24
2022-08-23T18:18:15.759Z,21.22
2022-08-23T18:20:45.067Z,21.22
2022-08-23T18:23:15.577Z,21.20
2022-08-23T18:25:45.841Z,21.17
2022-08-23T18:28:18.265Z,21.13
2022-08-23T18:30:56.057Z,21.07
2022-08-23T18:33:31.799Z,21.06
2022-08-23T18:36:16.186Z,21.00
2022-08-23T18:38:45.471Z,20.97
2022-08-23T18:41:18.611Z,20.95
2022-08-23T18:43:49.220Z,20.89
2022-08-23T18:46:19.051Z,20.86
2022-08-23T18:48:53.274Z,20.86
2022-08-23T18:51:23.231Z,20.84
2022-08-23T18:53:52.579Z,20.81
2022-08-23T18:56:21.961Z,20.77
2022-08-23T18:58:51.754Z,20.68
2022-08-23T19:01:29.769Z,20.63
2022-08-23T19:04:00.903Z,20.59
2022-08-23T19:06:30.951Z,20.54
2022-08-23T19:09:01.190Z,20.43
2022-08-23T19:11:32.211Z,20.35
2022-08-23T19:14:02.206Z,20.33
2022-08-23T19:16:33.125Z,20.27
2022-08-23T19:19:02.835Z,20.24
2022-08-23T19:21:32.482Z,20.19
2022-08-23T19:24:02.171Z,20.10
2022-08-23T19:26:34.538Z,20.04
2022-08-23T19:29:06.369Z,20.02
2022-08-23T19:31:41.639Z,20.00
2022-08-23T19:34:12.645Z,19.96
2022-08-23T19:37:00.353Z,19.90
2022-08-23T19:39:30.923Z,19.86
2022-08-23T19:42:00.592Z,19.73
2022-08-23T19:44:31.378Z,19.64
2022-08-23T19:47:00.759Z,19.59
2022-08-23T19:49:30.184Z,19.52
2022-08-23T19:51:59.505Z,19.55
2022-08-23T19:54:30.118Z,19.60
2022-08-23T19:57:01.736Z,19.63
2022-08-23T19:59:41.537Z,19.58
2022-08-23T20:02:14.001Z,19.53
2022-08-23T20:04:43.524Z,19.54
2022-08-23T20:07:12.968Z,19.58
2022-08-23T20:09:42.297Z,19.61
2022-08-23T20:12:11.607Z,19.63
2022-08-23T20:14:40.970Z,19.58
2022-08-23T20:17:10.234Z,19.57
2022-08-23T20:19:41.849Z,19.56
2022-08-23T20:22:23.789Z,19.58
2022-08-23T20:24:53.414Z,19.60
2022-08-23T20:27:30.371Z,19.62
2022-08-23T20:30:03.246Z,19.63
2022-08-23T20:32:33.177Z,19.64
2022-08-23T20:35:03.410Z,19.67
2022-08-23T20:37:33.171Z,19.67
2022-08-23T20:40:02.869Z,19.68
2022-08-23T20:42:32.167Z,19.68
2022-08-23T20:45:01.480Z,19.68
2022-08-23T20:47:30.771Z,19.70
2022-08-23T20:50:00.268Z,19.67
2022-08-23T20:52:34.007Z,19.64
2022-08-23T20:55:04.319Z,19.61
2022-08-23T20:57:39.994Z,19.59
2022-08-23T21:00:10.540Z,19.60
2022-08-23T21:02:39.848Z,19.60
2022-08-23T21:05:09.724Z,19.63
2022-08-23T21:07:39.434Z,19.67
2022-08-23T21:10:09.377Z,19.64
2022-08-23T21:12:38.764Z,19.63
2022-08-23T21:15:10.954Z,19.64
2022-08-23T21:17:40.899Z,19.64
2022-08-23T21:20:10.536Z,19.62
2022-08-23T21:22:40.088Z,19.63
2022-08-23T21:25:09.628Z,19.63
2022-08-23T21:27:38.921Z,19.62
2022-08-23T21:30:09.742Z,19.60
2022-08-23T21:32:39.060Z,19.59
2022-08-23T21:35:11.539Z,19.58
2022-08-23T21:37:40.893Z,19.56
2022-08-23T21:40:10.704Z,19.55
2022-08-23T21:42:40.226Z,19.51
2022-08-23T21:45:10.617Z,19.46
2022-08-23T21:47:40.651Z,19.47
2022-08-23T21:50:10.154Z,19.47
2022-08-23T21:52:39.452Z,19.45
2022-08-23T21:55:09.590Z,19.37
2022-08-23T21:57:39.061Z,19.33
2022-08-23T22:00:15.050Z,19.37
2022-08-23T22:02:44.412Z,19.39
2022-08-23T22:05:14.334Z,19.42
2022-08-23T22:07:43.589Z,19.41
2022-08-23T22:10:13.185Z,19.38
2022-08-23T22:12:42.911Z,19.37
2022-08-23T22:15:13.300Z,19.31
2022-08-23T22:17:43.108Z,19.27
2022-08-23T22:20:13.727Z,19.24
2022-08-23T22:22:44.394Z,19.26
2022-08-23T22:25:14.128Z,19.30
2022-08-23T22:27:43.507Z,19.27
2022-08-23T22:30:13.941Z,19.29
2022-08-23T22:32:43.781Z,19.30
2022-08-23T22:35:14.372Z,19.28
2022-08-23T22:38:10.293Z,19.26
2022-08-23T22:40:39.734Z,19.23
2022-08-23T22:43:11.310Z,19.20
2022-08-23T22:45:44.560Z,19.14
2022-08-23T22:48:14.607Z,19.13
2022-08-23T22:50:43.934Z,19.11
2022-08-23T22:53:13.220Z,19.08
2022-08-23T22:55:43.433Z,19.03
2022-08-23T22:58:12.844Z,18.98
2022-08-23T23:00:45.789Z,18.89
2022-08-23T23:03:15.074Z,18.81
2022-08-23T23:05:44.339Z,18.79
2022-08-23T23:08:26.149Z,18.72
2022-08-23T23:11:02.969Z,18.63
2022-08-23T23:13:34.172Z,18.62
2022-08-23T23:16:10.600Z,18.60
2022-08-23T23:18:40.902Z,18.56
2022-08-23T23:21:08.506Z,18.50
2022-08-23T23:23:40.064Z,18.45
2022-08-23T23:26:10.602Z,18.39
2022-08-23T23:28:40.037Z,18.34
2022-08-23T23:31:09.679Z,18.31
2022-08-23T23:33:39.020Z,18.24
2022-08-23T23:36:08.560Z,18.19
2022-08-23T23:38:40.774Z,18.12
2022-08-23T23:41:11.025Z,18.08
2022-08-23T23:43:40.282Z,18.04
2022-08-23T23:46:13.570Z,18.00
2022-08-23T23:48:48.340Z,17.93
2022-08-23T23:51:21.186Z,17.86
2022-08-23T23:53:53.658Z,17.75
2022-08-23T23:56:25.873Z,17.64
2022-08-23T23:58:56.652Z,17.52
